sensor_id;sensor_type;location;lat;lon;timestamp;P1;durP1;ratioP1;P2;durP2;ratioP2
3633;SDS011;1833;42.718;23.270;2022-10-31T00:00:56;30.67;;;27.70;;
3633;SDS011;1833;42.718;23.270;2022-10-31T00:03:23;30.40;;;27.50;;
3633;SDS011;1833;42.718;23.270;2022-10-31T00:05:51;30.03;;;27.30;;
3633;SDS011;1833;42.718;23.270;2022-10-31T00:08:19;29.00;;;26.30;;
3633;SDS011;1833;42.718;23.270;2022-10-31T00:10:47;30.23;;;27.37;;
3633;SDS011;1833;42.718;23.270;2022-10-31T00:13:15;29.63;;;26.70;;
3633;SDS011;1833;42.718;23.270;2022-10-31T00:15:42;30.43;;;27.63;;
3633;SDS011;1833;42.718;23.270;2022-10-31T00:18:10;29.97;;;27.07;;
3633;SDS011;1833;42.718;23.270;2022-10-31T00:20:37;29.60;;;27.00;;
3633;SDS011;1833;42.718;23.270;2022-10-31T00:23:05;29.43;;;26.73;;
3633;SDS011;1833;42.718;23.270;2022-10-31T00:25:34;29.67;;;27.07;;
3633;SDS011;1833;42.718;23.270;2022-10-31T00:28:03;29.57;;;26.70;;
3633;SDS011;1833;42.718;23.270;2022-10-31T00:30:30;30.30;;;27.30;;
3633;SDS011;1833;42.718;23.270;2022-10-31T00:32:58;29.93;;;26.93;;
3633;SDS011;1833;42.718;23.270;2022-10-31T00:35:25;29.87;;;27.17;;
3633;SDS011;1833;42.718;23.270;2022-10-31T00:37:53;28.87;;;26.17;;
3633;SDS011;1833;42.718;23.270;2022-10-31T00:40:20;28.47;;;25.87;;
3633;SDS011;1833;42.718;23.270;2022-10-31T00:42:47;29.67;;;27.00;;
3633;SDS011;1833;42.718;23.270;2022-10-31T00:45:16;28.17;;;25.77;;
3633;SDS011;1833;42.718;23.270;2022-10-31T00:47:44;31.13;;;27.03;;
3633;SDS011;1833;42.718;23.270;2022-10-31T00:50:11;28.97;;;26.27;;
3633;SDS011;1833;42.718;23.270;2022-10-31T00:52:38;28.40;;;26.13;;
3633;SDS011;1833;42.718;23.270;2022-10-31T00:55:06;29.37;;;26.77;;
3633;SDS011;1833;42.718;23.270;2022-10-31T00:57:33;29.43;;;26.70;;
3633;SDS011;1833;42.718;23.270;2022-10-31T01:00:01;28.83;;;26.40;;
3633;SDS011;1833;42.718;23.270;2022-10-31T01:02:30;28.27;;;25.97;;
3633;SDS011;1833;42.718;23.270;2022-10-31T01:04:57;29.13;;;26.30;;
3633;SDS011;1833;42.718;23.270;2022-10-31T01:07:24;29.10;;;26.60;;
3633;SDS011;1833;42.718;23.270;2022-10-31T01:09:52;28.43;;;25.90;;
3633;SDS011;1833;42.718;23.270;2022-10-31T01:12:19;28.20;;;25.90;;
3633;SDS011;1833;42.718;23.270;2022-10-31T01:14:46;27.73;;;25.43;;
3633;SDS011;1833;42.718;23.270;2022-10-31T01:17:14;30.10;;;26.83;;
3633;SDS011;1833;42.718;23.270;2022-10-31T01:19:43;29.70;;;26.93;;
3633;SDS011;1833;42.718;23.270;2022-10-31T01:22:10;29.93;;;27.23;;
3633;SDS011;1833;42.718;23.270;2022-10-31T01:24:37;28.20;;;25.57;;
3633;SDS011;1833;42.718;23.270;2022-10-31T01:27:04;29.43;;;26.87;;
3633;SDS011;1833;42.718;23.270;2022-10-31T01:29:32;29.40;;;26.80;;
3633;SDS011;1833;42.718;23.270;2022-10-31T01:31:59;28.30;;;25.90;;
3633;SDS011;1833;42.718;23.270;2022-10-31T01:34:26;29.23;;;26.63;;
3633;SDS011;1833;42.718;23.270;2022-10-31T01:36:55;29.50;;;26.70;;
3633;SDS011;1833;42.718;23.270;2022-10-31T01:39:23;28.40;;;25.80;;
3633;SDS011;1833;42.718;23.270;2022-10-31T01:41:51;29.93;;;27.17;;
3633;SDS011;1833;42.718;23.270;2022-10-31T01:47:05;29.70;;;26.90;;
3633;SDS011;1833;42.718;23.270;2022-10-31T01:49:33;29.70;;;27.03;;
3633;SDS011;1833;42.718;23.270;2022-10-31T01:52:04;29.23;;;26.37;;
3633;SDS011;1833;42.718;23.270;2022-10-31T01:54:34;28.53;;;25.83;;
3633;SDS011;1833;42.718;23.270;2022-10-31T01:57:02;27.73;;;25.33;;
3633;SDS011;1833;42.718;23.270;2022-10-31T01:59:31;28.80;;;26.10;;
3633;SDS011;1833;42.718;23.270;2022-10-31T02:01:59;29.07;;;26.20;;
3633;SDS011;1833;42.718;23.270;2022-10-31T02:04:26;30.53;;;27.33;;
3633;SDS011;1833;42.718;23.270;2022-10-31T02:06:55;30.20;;;27.33;;
3633;SDS011;1833;42.718;23.270;2022-10-31T02:09:26;29.37;;;26.50;;
3633;SDS011;1833;42.718;23.270;2022-10-31T02:11:54;28.20;;;25.70;;
3633;SDS011;1833;42.718;23.270;2022-10-31T02:14:23;28.90;;;26.10;;
3633;SDS011;1833;42.718;23.270;2022-10-31T02:16:52;28.10;;;25.57;;
3633;SDS011;1833;42.718;23.270;2022-10-31T02:19:21;30.47;;;27.27;;
3633;SDS011;1833;42.718;23.270;2022-10-31T02:21:53;29.00;;;26.20;;
3633;SDS011;1833;42.718;23.270;2022-10-31T02:24:37;28.93;;;26.23;;
3633;SDS011;1833;42.718;23.270;2022-10-31T02:27:12;29.00;;;26.30;;
3633;SDS011;1833;42.718;23.270;2022-10-31T02:29:59;28.73;;;25.80;;
3633;SDS011;1833;42.718;23.270;2022-10-31T02:32:32;29.10;;;26.00;;
3633;SDS011;1833;42.718;23.270;2022-10-31T02:35:05;30.67;;;27.47;;
3633;SDS011;1833;42.718;23.270;2022-10-31T02:37:34;29.07;;;26.33;;
3633;SDS011;1833;42.718;23.270;2022-10-31T02:40:04;28.90;;;26.37;;
3633;SDS011;1833;42.718;23.270;2022-10-31T02:42:33;29.70;;;26.70;;
3633;SDS011;1833;42.718;23.270;2022-10-31T02:45:04;28.23;;;25.53;;
3633;SDS011;1833;42.718;23.270;2022-10-31T02:47:36;29.20;;;26.57;;
3633;SDS011;1833;42.718;23.270;2022-10-31T02:50:04;28.63;;;25.77;;
3633;SDS011;1833;42.718;23.270;2022-10-31T02:52:34;28.60;;;25.83;;
3633;SDS011;1833;42.718;23.270;2022-10-31T02:55:11;32.30;;;26.30;;
3633;SDS011;1833;42.718;23.270;2022-10-31T02:57:39;27.63;;;25.23;;
3633;SDS011;1833;42.718;23.270;2022-10-31T03:00:08;28.10;;;25.70;;
3633;SDS011;1833;42.718;23.270;2022-10-31T03:02:49;29.33;;;26.63;;
3633;SDS011;1833;42.718;23.270;2022-10-31T03:05:23;28.90;;;26.40;;
3633;SDS011;1833;42.718;23.270;2022-10-31T03:07:56;28.20;;;25.70;;
3633;SDS011;1833;42.718;23.270;2022-10-31T03:10:27;28.10;;;25.57;;
3633;SDS011;1833;42.718;23.270;2022-10-31T03:12:59;29.20;;;26.10;;
3633;SDS011;1833;42.718;23.270;2022-10-31T03:15:29;29.90;;;26.80;;
3633;SDS011;1833;42.718;23.270;2022-10-31T03:18:01;29.90;;;27.10;;
3633;SDS011;1833;42.718;23.270;2022-10-31T03:20:31;30.60;;;27.80;;
3633;SDS011;1833;42.718;23.270;2022-10-31T03:23:00;31.83;;;26.77;;
3633;SDS011;1833;42.718;23.270;2022-10-31T03:25:29;29.47;;;26.97;;
3633;SDS011;1833;42.718;23.270;2022-10-31T03:27:57;29.10;;;26.53;;
3633;SDS011;1833;42.718;23.270;2022-10-31T03:30:26;29.37;;;26.70;;
3633;SDS011;1833;42.718;23.270;2022-10-31T03:32:54;31.10;;;28.17;;
3633;SDS011;1833;42.718;23.270;2022-10-31T03:35:24;31.90;;;29.03;;
3633;SDS011;1833;42.718;23.270;2022-10-31T03:37:53;29.53;;;26.53;;
3633;SDS011;1833;42.718;23.270;2022-10-31T03:40:21;29.87;;;26.97;;
3633;SDS011;1833;42.718;23.270;2022-10-31T03:42:51;30.37;;;27.53;;
3633;SDS011;1833;42.718;23.270;2022-10-31T03:45:21;31.50;;;28.80;;
3633;SDS011;1833;42.718;23.270;2022-10-31T03:47:50;28.60;;;26.23;;
3633;SDS011;1833;42.718;23.270;2022-10-31T03:50:18;30.50;;;27.40;;
3633;SDS011;1833;42.718;23.270;2022-10-31T03:52:48;30.27;;;27.40;;
3633;SDS011;1833;42.718;23.270;2022-10-31T03:55:17;29.60;;;27.10;;
3633;SDS011;1833;42.718;23.270;2022-10-31T03:57:45;29.00;;;26.50;;
3633;SDS011;1833;42.718;23.270;2022-10-31T04:00:15;29.23;;;26.47;;
3633;SDS011;1833;42.718;23.270;2022-10-31T04:02:45;30.43;;;25.90;;
3633;SDS011;1833;42.718;23.270;2022-10-31T04:05:13;28.70;;;25.97;;
3633;SDS011;1833;42.718;23.270;2022-10-31T04:07:43;28.97;;;26.40;;
3633;SDS011;1833;42.718;23.270;2022-10-31T04:10:14;29.80;;;26.70;;
3633;SDS011;1833;42.718;23.270;2022-10-31T04:12:44;30.73;;;27.93;;
3633;SDS011;1833;42.718;23.270;2022-10-31T04:15:15;29.53;;;26.53;;
3633;SDS011;1833;42.718;23.270;2022-10-31T04:17:43;28.57;;;26.00;;
3633;SDS011;1833;42.718;23.270;2022-10-31T04:20:14;29.27;;;26.47;;
3633;SDS011;1833;42.718;23.270;2022-10-31T04:22:42;29.17;;;26.57;;
3633;SDS011;1833;42.718;23.270;2022-10-31T04:25:09;35.60;;;27.80;;
3633;SDS011;1833;42.718;23.270;2022-10-31T04:27:40;32.97;;;27.77;;
3633;SDS011;1833;42.718;23.270;2022-10-31T04:30:07;29.37;;;26.87;;
3633;SDS011;1833;42.718;23.270;2022-10-31T04:32:35;28.57;;;26.00;;
3633;SDS011;1833;42.718;23.270;2022-10-31T04:35:03;28.53;;;25.93;;
3633;SDS011;1833;42.718;23.270;2022-10-31T04:37:30;27.87;;;25.17;;
3633;SDS011;1833;42.718;23.270;2022-10-31T04:39:58;28.97;;;26.17;;
3633;SDS011;1833;42.718;23.270;2022-10-31T04:42:28;29.27;;;26.43;;
3633;SDS011;1833;42.718;23.270;2022-10-31T04:44:57;28.90;;;26.20;;
3633;SDS011;1833;42.718;23.270;2022-10-31T04:47:24;33.50;;;30.30;;
3633;SDS011;1833;42.718;23.270;2022-10-31T04:49:52;32.93;;;29.63;;
3633;SDS011;1833;42.718;23.270;2022-10-31T04:52:19;30.40;;;27.33;;
3633;SDS011;1833;42.718;23.270;2022-10-31T04:54:47;33.63;;;30.20;;
3633;SDS011;1833;42.718;23.270;2022-10-31T04:57:14;34.00;;;28.67;;
3633;SDS011;1833;42.718;23.270;2022-10-31T04:59:41;30.50;;;27.73;;
3633;SDS011;1833;42.718;23.270;2022-10-31T05:02:11;32.53;;;29.33;;
3633;SDS011;1833;42.718;23.270;2022-10-31T05:04:38;31.60;;;28.63;;
3633;SDS011;1833;42.718;23.270;2022-10-31T05:07:05;37.17;;;30.63;;
3633;SDS011;1833;42.718;23.270;2022-10-31T05:09:33;37.93;;;29.50;;
3633;SDS011;1833;42.718;23.270;2022-10-31T05:12:00;36.60;;;32.20;;
3633;SDS011;1833;42.718;23.270;2022-10-31T05:14:27;36.70;;;32.37;;
3633;SDS011;1833;42.718;23.270;2022-10-31T05:16:55;39.37;;;33.70;;
3633;SDS011;1833;42.718;23.270;2022-10-31T05:19:24;47.63;;;35.70;;
3633;SDS011;1833;42.718;23.270;2022-10-31T05:21:51;47.57;;;35.60;;
3633;SDS011;1833;42.718;23.270;2022-10-31T05:24:19;43.57;;;34.10;;
3633;SDS011;1833;42.718;23.270;2022-10-31T05:26:47;36.53;;;32.60;;
3633;SDS011;1833;42.718;23.270;2022-10-31T05:29:14;41.93;;;34.60;;
3633;SDS011;1833;42.718;23.270;2022-10-31T05:31:41;40.30;;;32.10;;
3633;SDS011;1833;42.718;23.270;2022-10-31T05:34:09;35.37;;;31.70;;
3633;SDS011;1833;42.718;23.270;2022-10-31T05:36:38;46.30;;;33.20;;
3633;SDS011;1833;42.718;23.270;2022-10-31T05:39:05;36.30;;;32.70;;
3633;SDS011;1833;42.718;23.270;2022-10-31T05:41:32;35.80;;;32.30;;
3633;SDS011;1833;42.718;23.270;2022-10-31T05:44:00;34.93;;;31.27;;
3633;SDS011;1833;42.718;23.270;2022-10-31T05:46:27;39.70;;;35.27;;
3633;SDS011;1833;42.718;23.270;2022-10-31T05:48:55;43.60;;;36.30;;
3633;SDS011;1833;42.718;23.270;2022-10-31T05:51:22;37.90;;;34.00;;
3633;SDS011;1833;42.718;23.270;2022-10-31T05:53:51;56.17;;;37.37;;
3633;SDS011;1833;42.718;23.270;2022-10-31T05:56:18;49.80;;;37.70;;
3633;SDS011;1833;42.718;23.270;2022-10-31T05:58:46;39.33;;;33.30;;
3633;SDS011;1833;42.718;23.270;2022-10-31T06:01:13;44.83;;;32.93;;
3633;SDS011;1833;42.718;23.270;2022-10-31T06:03:40;37.33;;;33.20;;
3633;SDS011;1833;42.718;23.270;2022-10-31T06:06:08;36.83;;;32.73;;
3633;SDS011;1833;42.718;23.270;2022-10-31T06:08:35;42.60;;;34.50;;
3633;SDS011;1833;42.718;23.270;2022-10-31T06:11:04;37.20;;;33.23;;
3633;SDS011;1833;42.718;23.270;2022-10-31T06:13:31;42.50;;;33.87;;
3633;SDS011;1833;42.718;23.270;2022-10-31T06:15:58;39.63;;;34.40;;
3633;SDS011;1833;42.718;23.270;2022-10-31T06:18:26;40.87;;;34.63;;
3633;SDS011;1833;42.718;23.270;2022-10-31T06:20:53;48.80;;;35.90;;
3633;SDS011;1833;42.718;23.270;2022-10-31T06:23:20;53.63;;;37.53;;
3633;SDS011;1833;42.718;23.270;2022-10-31T06:25:48;41.90;;;34.83;;
3633;SDS011;1833;42.718;23.270;2022-10-31T06:28:17;41.63;;;32.90;;
3633;SDS011;1833;42.718;23.270;2022-10-31T06:30:45;36.80;;;33.10;;
3633;SDS011;1833;42.718;23.270;2022-10-31T06:33:12;41.70;;;34.83;;
3633;SDS011;1833;42.718;23.270;2022-10-31T06:35:44;39.00;;;34.90;;
3633;SDS011;1833;42.718;23.270;2022-10-31T06:38:11;40.50;;;33.13;;
3633;SDS011;1833;42.718;23.270;2022-10-31T06:40:39;44.77;;;38.87;;
3633;SDS011;1833;42.718;23.270;2022-10-31T06:43:06;40.50;;;34.67;;
3633;SDS011;1833;42.718;23.270;2022-10-31T06:45:35;44.33;;;37.20;;
3633;SDS011;1833;42.718;23.270;2022-10-31T06:48:02;139.43;;;84.73;;
3633;SDS011;1833;42.718;23.270;2022-10-31T06:50:30;73.70;;;48.40;;
3633;SDS011;1833;42.718;23.270;2022-10-31T06:52:57;57.03;;;41.20;;
3633;SDS011;1833;42.718;23.270;2022-10-31T06:55:25;51.60;;;41.50;;
3633;SDS011;1833;42.718;23.270;2022-10-31T06:57:53;46.57;;;38.63;;
3633;SDS011;1833;42.718;23.270;2022-10-31T07:00:20;82.93;;;56.90;;
3633;SDS011;1833;42.718;23.270;2022-10-31T07:02:56;68.93;;;52.50;;
3633;SDS011;1833;42.718;23.270;2022-10-31T07:05:24;40.93;;;36.83;;
3633;SDS011;1833;42.718;23.270;2022-10-31T07:07:52;56.00;;;38.83;;
3633;SDS011;1833;42.718;23.270;2022-10-31T07:10:19;140.60;;;97.47;;
3633;SDS011;1833;42.718;23.270;2022-10-31T07:12:47;43.27;;;38.30;;
3633;SDS011;1833;42.718;23.270;2022-10-31T07:15:14;55.63;;;46.17;;
3633;SDS011;1833;42.718;23.270;2022-10-31T07:17:42;44.47;;;37.93;;
3633;SDS011;1833;42.718;23.270;2022-10-31T07:20:11;45.90;;;39.87;;
3633;SDS011;1833;42.718;23.270;2022-10-31T07:22:38;125.07;;;81.00;;
3633;SDS011;1833;42.718;23.270;2022-10-31T07:25:06;121.40;;;78.73;;
3633;SDS011;1833;42.718;23.270;2022-10-31T07:27:36;112.37;;;78.83;;
3633;SDS011;1833;42.718;23.270;2022-10-31T07:30:04;44.23;;;39.17;;
3633;SDS011;1833;42.718;23.270;2022-10-31T07:32:38;42.13;;;37.20;;
3633;SDS011;1833;42.718;23.270;2022-10-31T07:35:06;43.73;;;36.63;;
3633;SDS011;1833;42.718;23.270;2022-10-31T07:37:35;40.13;;;35.80;;
3633;SDS011;1833;42.718;23.270;2022-10-31T07:40:02;46.93;;;37.50;;
3633;SDS011;1833;42.718;23.270;2022-10-31T07:42:34;53.57;;;38.70;;
3633;SDS011;1833;42.718;23.270;2022-10-31T07:45:01;40.80;;;36.63;;
3633;SDS011;1833;42.718;23.270;2022-10-31T07:47:29;45.67;;;38.20;;
3633;SDS011;1833;42.718;23.270;2022-10-31T07:49:56;46.13;;;39.70;;
3633;SDS011;1833;42.718;23.270;2022-10-31T07:52:23;42.50;;;38.03;;
3633;SDS011;1833;42.718;23.270;2022-10-31T07:54:52;43.83;;;36.77;;
3633;SDS011;1833;42.718;23.270;2022-10-31T07:57:19;46.40;;;38.20;;
3633;SDS011;1833;42.718;23.270;2022-10-31T07:59:47;44.30;;;37.70;;
3633;SDS011;1833;42.718;23.270;2022-10-31T08:02:14;40.77;;;36.30;;
3633;SDS011;1833;42.718;23.270;2022-10-31T08:04:41;42.40;;;36.03;;
3633;SDS011;1833;42.718;23.270;2022-10-31T08:07:09;40.50;;;35.23;;
3633;SDS011;1833;42.718;23.270;2022-10-31T08:09:36;40.87;;;34.63;;
3633;SDS011;1833;42.718;23.270;2022-10-31T08:12:05;39.13;;;34.97;;
3633;SDS011;1833;42.718;23.270;2022-10-31T08:14:33;39.67;;;35.67;;
3633;SDS011;1833;42.718;23.270;2022-10-31T08:17:00;38.90;;;34.80;;
3633;SDS011;1833;42.718;23.270;2022-10-31T08:19:27;42.03;;;36.70;;
3633;SDS011;1833;42.718;23.270;2022-10-31T08:21:55;37.90;;;33.90;;
3633;SDS011;1833;42.718;23.270;2022-10-31T08:24:23;38.37;;;34.40;;
3633;SDS011;1833;42.718;23.270;2022-10-31T08:26:50;42.47;;;36.00;;
3633;SDS011;1833;42.718;23.270;2022-10-31T08:29:20;39.60;;;35.47;;
3633;SDS011;1833;42.718;23.270;2022-10-31T08:31:47;61.80;;;49.20;;
3633;SDS011;1833;42.718;23.270;2022-10-31T08:34:14;42.23;;;34.43;;
3633;SDS011;1833;42.718;23.270;2022-10-31T08:36:42;41.13;;;35.20;;
3633;SDS011;1833;42.718;23.270;2022-10-31T08:39:11;39.20;;;35.10;;
3633;SDS011;1833;42.718;23.270;2022-10-31T08:41:38;44.20;;;35.70;;
3633;SDS011;1833;42.718;23.270;2022-10-31T08:44:05;40.07;;;35.93;;
3633;SDS011;1833;42.718;23.270;2022-10-31T08:46:34;39.37;;;35.27;;
3633;SDS011;1833;42.718;23.270;2022-10-31T08:49:01;38.07;;;34.30;;
3633;SDS011;1833;42.718;23.270;2022-10-31T08:51:28;38.80;;;33.30;;
3633;SDS011;1833;42.718;23.270;2022-10-31T08:53:56;38.43;;;34.43;;
3633;SDS011;1833;42.718;23.270;2022-10-31T08:56:23;38.00;;;34.03;;
3633;SDS011;1833;42.718;23.270;2022-10-31T08:58:52;37.90;;;34.03;;
3633;SDS011;1833;42.718;23.270;2022-10-31T09:01:19;36.93;;;32.97;;
3633;SDS011;1833;42.718;23.270;2022-10-31T09:03:48;37.80;;;33.80;;
3633;SDS011;1833;42.718;23.270;2022-10-31T09:06:15;37.33;;;32.37;;
3633;SDS011;1833;42.718;23.270;2022-10-31T09:08:42;38.90;;;32.07;;
3633;SDS011;1833;42.718;23.270;2022-10-31T09:11:10;35.77;;;32.13;;
3633;SDS011;1833;42.718;23.270;2022-10-31T09:13:37;37.27;;;33.37;;
3633;SDS011;1833;42.718;23.270;2022-10-31T09:16:05;49.97;;;33.37;;
3633;SDS011;1833;42.718;23.270;2022-10-31T09:18:32;36.93;;;33.23;;
3633;SDS011;1833;42.718;23.270;2022-10-31T09:21:01;35.53;;;31.70;;
3633;SDS011;1833;42.718;23.270;2022-10-31T09:23:28;36.23;;;32.37;;
3633;SDS011;1833;42.718;23.270;2022-10-31T09:25:58;35.10;;;31.53;;
3633;SDS011;1833;42.718;23.270;2022-10-31T09:28:25;38.00;;;34.03;;
3633;SDS011;1833;42.718;23.270;2022-10-31T09:30:53;39.73;;;35.50;;
3633;SDS011;1833;42.718;23.270;2022-10-31T09:33:20;42.10;;;34.60;;
3633;SDS011;1833;42.718;23.270;2022-10-31T09:35:48;38.17;;;33.40;;
3633;SDS011;1833;42.718;23.270;2022-10-31T09:38:18;40.00;;;35.80;;
3633;SDS011;1833;42.718;23.270;2022-10-31T09:40:46;40.57;;;36.53;;
3633;SDS011;1833;42.718;23.270;2022-10-31T09:43:15;35.20;;;31.70;;
3633;SDS011;1833;42.718;23.270;2022-10-31T09:45:49;34.47;;;31.10;;
3633;SDS011;1833;42.718;23.270;2022-10-31T09:48:25;35.53;;;32.20;;
3633;SDS011;1833;42.718;23.270;2022-10-31T09:50:55;39.10;;;34.17;;
3633;SDS011;1833;42.718;23.270;2022-10-31T09:53:25;38.63;;;33.10;;
3633;SDS011;1833;42.718;23.270;2022-10-31T09:55:53;45.53;;;37.83;;
3633;SDS011;1833;42.718;23.270;2022-10-31T09:58:25;37.00;;;30.83;;
3633;SDS011;1833;42.718;23.270;2022-10-31T10:00:53;32.03;;;29.13;;
3633;SDS011;1833;42.718;23.270;2022-10-31T10:03:24;33.30;;;30.20;;
3633;SDS011;1833;42.718;23.270;2022-10-31T10:05:57;31.93;;;28.77;;
3633;SDS011;1833;42.718;23.270;2022-10-31T10:08:29;32.93;;;29.77;;
3633;SDS011;1833;42.718;23.270;2022-10-31T10:10:59;33.40;;;30.10;;
3633;SDS011;1833;42.718;23.270;2022-10-31T10:13:39;33.00;;;30.00;;
3633;SDS011;1833;42.718;23.270;2022-10-31T10:16:13;32.33;;;29.30;;
3633;SDS011;1833;42.718;23.270;2022-10-31T10:18:44;32.47;;;29.20;;
3633;SDS011;1833;42.718;23.270;2022-10-31T10:21:17;32.23;;;29.33;;
3633;SDS011;1833;42.718;23.270;2022-10-31T10:23:54;31.23;;;28.20;;
3633;SDS011;1833;42.718;23.270;2022-10-31T10:26:24;32.30;;;29.00;;
3633;SDS011;1833;42.718;23.270;2022-10-31T10:28:57;32.10;;;29.10;;
3633;SDS011;1833;42.718;23.270;2022-10-31T10:31:26;31.30;;;28.43;;
3633;SDS011;1833;42.718;23.270;2022-10-31T10:33:59;31.70;;;28.60;;
3633;SDS011;1833;42.718;23.270;2022-10-31T10:36:30;30.93;;;27.87;;
3633;SDS011;1833;42.718;23.270;2022-10-31T10:39:02;31.67;;;28.53;;
3633;SDS011;1833;42.718;23.270;2022-10-31T10:41:32;32.40;;;28.97;;
3633;SDS011;1833;42.718;23.270;2022-10-31T10:43:59;32.03;;;28.80;;
3633;SDS011;1833;42.718;23.270;2022-10-31T10:46:29;30.17;;;27.57;;
3633;SDS011;1833;42.718;23.270;2022-10-31T10:49:16;30.48;;;27.77;;
3633;SDS011;1833;42.718;23.270;2022-10-31T10:51:45;31.60;;;28.38;;
3633;SDS011;1833;42.718;23.270;2022-10-31T10:57:11;30.58;;;27.85;;
3633;SDS011;1833;42.718;23.270;2022-10-31T10:59:40;29.75;;;27.05;;
3633;SDS011;1833;42.718;23.270;2022-10-31T11:02:18;29.63;;;26.88;;
3633;SDS011;1833;42.718;23.270;2022-10-31T11:04:47;30.52;;;27.38;;
3633;SDS011;1833;42.718;23.270;2022-10-31T11:07:17;31.00;;;28.00;;
3633;SDS011;1833;42.718;23.270;2022-10-31T11:09:44;30.70;;;27.55;;
3633;SDS011;1833;42.718;23.270;2022-10-31T11:12:20;31.05;;;27.95;;
3633;SDS011;1833;42.718;23.270;2022-10-31T11:14:50;31.42;;;28.15;;
3633;SDS011;1833;42.718;23.270;2022-10-31T11:17:25;29.85;;;27.13;;
3633;SDS011;1833;42.718;23.270;2022-10-31T11:20:00;31.17;;;27.88;;
3633;SDS011;1833;42.718;23.270;2022-10-31T11:22:27;31.20;;;28.05;;
3633;SDS011;1833;42.718;23.270;2022-10-31T11:24:55;30.92;;;27.90;;
3633;SDS011;1833;42.718;23.270;2022-10-31T11:27:25;30.65;;;27.65;;
3633;SDS011;1833;42.718;23.270;2022-10-31T11:29:53;30.90;;;27.95;;
3633;SDS011;1833;42.718;23.270;2022-10-31T11:32:31;31.25;;;27.25;;
3633;SDS011;1833;42.718;23.270;2022-10-31T11:34:59;30.42;;;27.35;;
3633;SDS011;1833;42.718;23.270;2022-10-31T11:37:28;30.73;;;27.60;;
3633;SDS011;1833;42.718;23.270;2022-10-31T11:39:57;29.10;;;26.50;;
3633;SDS011;1833;42.718;23.270;2022-10-31T11:42:28;30.13;;;27.33;;
3633;SDS011;1833;42.718;23.270;2022-10-31T11:44:57;30.48;;;27.58;;
3633;SDS011;1833;42.718;23.270;2022-10-31T11:47:25;30.90;;;27.88;;
3633;SDS011;1833;42.718;23.270;2022-10-31T11:49:53;30.25;;;27.42;;
3633;SDS011;1833;42.718;23.270;2022-10-31T11:52:22;30.45;;;27.65;;
3633;SDS011;1833;42.718;23.270;2022-10-31T11:54:52;30.75;;;27.60;;
3633;SDS011;1833;42.718;23.270;2022-10-31T11:57:21;29.77;;;26.88;;
3633;SDS011;1833;42.718;23.270;2022-10-31T11:59:51;29.42;;;26.60;;
3633;SDS011;1833;42.718;23.270;2022-10-31T12:02:20;30.30;;;27.40;;
3633;SDS011;1833;42.718;23.270;2022-10-31T12:04:48;30.38;;;27.38;;
3633;SDS011;1833;42.718;23.270;2022-10-31T12:07:17;31.63;;;28.27;;
3633;SDS011;1833;42.718;23.270;2022-10-31T12:09:44;30.95;;;28.05;;
3633;SDS011;1833;42.718;23.270;2022-10-31T12:12:20;32.22;;;27.90;;
3633;SDS011;1833;42.718;23.270;2022-10-31T12:14:53;30.92;;;27.80;;
3633;SDS011;1833;42.718;23.270;2022-10-31T12:17:28;31.90;;;28.88;;
3633;SDS011;1833;42.718;23.270;2022-10-31T12:19:59;29.45;;;26.73;;
3633;SDS011;1833;42.718;23.270;2022-10-31T12:22:39;30.17;;;27.25;;
3633;SDS011;1833;42.718;23.270;2022-10-31T12:25:16;31.65;;;28.23;;
3633;SDS011;1833;42.718;23.270;2022-10-31T12:27:57;31.52;;;28.40;;
3633;SDS011;1833;42.718;23.270;2022-10-31T12:30:28;30.80;;;28.00;;
3633;SDS011;1833;42.718;23.270;2022-10-31T12:33:03;33.10;;;27.90;;
3633;SDS011;1833;42.718;23.270;2022-10-31T12:35:44;31.30;;;28.40;;
3633;SDS011;1833;42.718;23.270;2022-10-31T12:38:19;33.47;;;27.93;;
3633;SDS011;1833;42.718;23.270;2022-10-31T12:41:01;31.70;;;28.40;;
3633;SDS011;1833;42.718;23.270;2022-10-31T12:43:37;32.00;;;28.80;;
3633;SDS011;1833;42.718;23.270;2022-10-31T12:46:10;31.93;;;28.53;;
3633;SDS011;1833;42.718;23.270;2022-10-31T12:51:24;31.80;;;27.87;;
3633;SDS011;1833;42.718;23.270;2022-10-31T12:53:58;30.83;;;27.73;;
3633;SDS011;1833;42.718;23.270;2022-10-31T12:56:33;30.87;;;27.90;;
3633;SDS011;1833;42.718;23.270;2022-10-31T12:59:04;32.47;;;29.17;;
3633;SDS011;1833;42.718;23.270;2022-10-31T13:01:37;31.17;;;27.97;;
3633;SDS011;1833;42.718;23.270;2022-10-31T13:04:10;30.60;;;27.80;;
3633;SDS011;1833;42.718;23.270;2022-10-31T13:06:40;32.77;;;27.63;;
3633;SDS011;1833;42.718;23.270;2022-10-31T13:09:08;31.10;;;28.30;;
3633;SDS011;1833;42.718;23.270;2022-10-31T13:11:39;29.87;;;27.13;;
3633;SDS011;1833;42.718;23.270;2022-10-31T13:14:10;29.83;;;27.07;;
3633;SDS011;1833;42.718;23.270;2022-10-31T13:16:41;36.53;;;27.83;;
3633;SDS011;1833;42.718;23.270;2022-10-31T13:19:10;30.67;;;27.70;;
3633;SDS011;1833;42.718;23.270;2022-10-31T13:21:40;32.73;;;27.30;;
3633;SDS011;1833;42.718;23.270;2022-10-31T13:24:09;34.43;;;27.50;;
3633;SDS011;1833;42.718;23.270;2022-10-31T13:26:40;33.43;;;29.37;;
3633;SDS011;1833;42.718;23.270;2022-10-31T13:29:13;38.70;;;29.40;;
3633;SDS011;1833;42.718;23.270;2022-10-31T13:31:44;29.90;;;27.23;;
3633;SDS011;1833;42.718;23.270;2022-10-31T13:34:16;31.27;;;27.70;;
3633;SDS011;1833;42.718;23.270;2022-10-31T13:36:47;31.23;;;27.97;;
3633;SDS011;1833;42.718;23.270;2022-10-31T13:39:18;31.57;;;28.70;;
3633;SDS011;1833;42.718;23.270;2022-10-31T13:41:48;32.23;;;28.37;;
3633;SDS011;1833;42.718;23.270;2022-10-31T13:44:18;33.47;;;29.50;;
3633;SDS011;1833;42.718;23.270;2022-10-31T13:46:50;30.73;;;27.93;;
3633;SDS011;1833;42.718;23.270;2022-10-31T13:49:26;35.23;;;28.40;;
3633;SDS011;1833;42.718;23.270;2022-10-31T13:54:48;29.93;;;26.97;;
3633;SDS011;1833;42.718;23.270;2022-10-31T13:57:22;28.73;;;25.90;;
3633;SDS011;1833;42.718;23.270;2022-10-31T13:59:52;30.23;;;27.23;;
3633;SDS011;1833;42.718;23.270;2022-10-31T14:02:23;29.80;;;27.03;;
3633;SDS011;1833;42.718;23.270;2022-10-31T14:04:54;29.80;;;26.93;;
3633;SDS011;1833;42.718;23.270;2022-10-31T14:07:22;29.93;;;27.30;;
3633;SDS011;1833;42.718;23.270;2022-10-31T14:09:52;29.00;;;26.23;;
3633;SDS011;1833;42.718;23.270;2022-10-31T14:12:24;29.87;;;26.73;;
3633;SDS011;1833;42.718;23.270;2022-10-31T14:14:53;28.17;;;25.60;;
3633;SDS011;1833;42.718;23.270;2022-10-31T14:17:25;29.37;;;26.10;;
3633;SDS011;1833;42.718;23.270;2022-10-31T14:20:02;28.77;;;26.13;;
3633;SDS011;1833;42.718;23.270;2022-10-31T14:22:30;31.13;;;26.87;;
3633;SDS011;1833;42.718;23.270;2022-10-31T14:24:57;28.73;;;25.90;;
3633;SDS011;1833;42.718;23.270;2022-10-31T14:27:44;29.30;;;26.50;;
3633;SDS011;1833;42.718;23.270;2022-10-31T14:30:14;34.60;;;28.67;;
3633;SDS011;1833;42.718;23.270;2022-10-31T14:32:43;35.23;;;29.20;;
3633;SDS011;1833;42.718;23.270;2022-10-31T14:35:13;31.20;;;28.00;;
3633;SDS011;1833;42.718;23.270;2022-10-31T14:37:52;34.53;;;30.47;;
3633;SDS011;1833;42.718;23.270;2022-10-31T14:40:24;37.70;;;30.60;;
3633;SDS011;1833;42.718;23.270;2022-10-31T14:42:58;33.57;;;27.83;;
3633;SDS011;1833;42.718;23.270;2022-10-31T14:45:30;31.33;;;27.93;;
3633;SDS011;1833;42.718;23.270;2022-10-31T14:50:49;44.73;;;27.97;;
3633;SDS011;1833;42.718;23.270;2022-10-31T14:53:19;30.23;;;27.20;;
3633;SDS011;1833;42.718;23.270;2022-10-31T14:55:48;33.43;;;27.27;;
3633;SDS011;1833;42.718;23.270;2022-10-31T14:58:18;36.23;;;27.20;;
3633;SDS011;1833;42.718;23.270;2022-10-31T15:00:48;34.47;;;29.03;;